createdAt,value
2022-10-10T00:02:29.750Z,28.85
2022-10-10T00:05:15.613Z,31.10
2022-10-10T00:08:01.615Z,29.00
2022-10-10T00:10:47.726Z,32.75
2022-10-10T00:13:34.477Z,31.80
2022-10-10T00:16:21.121Z,33.25
2022-10-10T00:19:07.341Z,31.48
2022-10-10T00:21:53.073Z,31.08
2022-10-10T00:24:38.995Z,34.85
2022-10-10T00:27:24.774Z,30.10
2022-10-10T00:30:11.018Z,31.80
2022-10-10T00:32:59.418Z,32.70
2022-10-10T00:35:45.230Z,28.50
2022-10-10T00:38:32.636Z,31.05
2022-10-10T00:41:18.752Z,30.20
2022-10-10T00:44:13.525Z,29.50
2022-10-10T00:46:59.867Z,32.78
2022-10-10T00:49:45.762Z,28.95
2022-10-10T00:52:31.761Z,31.88
2022-10-10T00:55:18.004Z,30.20
2022-10-10T00:58:05.919Z,28.55
2022-10-10T01:00:52.479Z,33.42
2022-10-10T01:03:38.444Z,24.77
2022-10-10T01:06:24.508Z,29.52
2022-10-10T01:09:10.557Z,29.23
2022-10-10T01:12:04.475Z,29.70
2022-10-10T01:15:18.633Z,29.77
2022-10-10T01:18:25.915Z,34.08
2022-10-10T01:21:30.709Z,28.65
2022-10-10T01:24:29.485Z,32.60
2022-10-10T01:27:38.948Z,27.65
2022-10-10T01:30:25.380Z,35.38
2022-10-10T01:33:16.922Z,32.13
2022-10-10T01:36:15.089Z,35.15
2022-10-10T01:39:17.629Z,29.38
2022-10-10T01:42:12.145Z,32.13
2022-10-10T01:44:58.429Z,28.58
2022-10-10T01:47:44.432Z,27.75
2022-10-10T01:50:34.619Z,29.67
2022-10-10T01:53:47.038Z,29.63
2022-10-10T01:56:59.453Z,31.43
2022-10-10T02:00:07.558Z,32.40
2022-10-10T02:03:05.835Z,31.88
2022-10-10T02:06:03.103Z,29.38
2022-10-10T02:08:55.996Z,34.13
2022-10-10T02:11:42.312Z,28.95
2022-10-10T02:14:32.950Z,28.27
2022-10-10T02:17:19.813Z,31.00
2022-10-10T02:20:06.909Z,31.15
2022-10-10T02:22:54.510Z,27.30
2022-10-10T02:25:41.624Z,29.20
2022-10-10T02:28:39.910Z,29.10
2022-10-10T02:31:51.025Z,31.17
2022-10-10T02:34:40.450Z,31.13
2022-10-10T02:37:26.388Z,30.48
2022-10-10T02:40:15.125Z,30.33
2022-10-10T02:43:03.515Z,30.80
2022-10-10T02:45:49.721Z,32.45
2022-10-10T02:48:35.989Z,30.13
2022-10-10T02:51:22.382Z,31.67
2022-10-10T02:54:08.920Z,28.88
2022-10-10T02:56:55.168Z,31.23
2022-10-10T02:59:41.145Z,31.23
2022-10-10T03:02:27.767Z,31.73
2022-10-10T03:05:13.975Z,28.08
2022-10-10T03:08:00.086Z,28.98
2022-10-10T03:11:00.750Z,30.80
2022-10-10T03:13:46.522Z,31.55
2022-10-10T03:16:32.533Z,32.85
2022-10-10T03:19:18.666Z,32.33
2022-10-10T03:22:04.885Z,32.63
2022-10-10T03:24:50.815Z,33.58
2022-10-10T03:27:36.988Z,33.50
2022-10-10T03:30:22.898Z,33.42
2022-10-10T03:33:09.742Z,31.80
2022-10-10T03:35:55.615Z,30.83
2022-10-10T03:38:41.725Z,35.17
2022-10-10T03:41:27.829Z,35.25
2022-10-10T03:44:13.672Z,32.15
2022-10-10T03:46:59.569Z,34.95
2022-10-10T03:49:45.520Z,39.75
2022-10-10T03:52:31.469Z,35.15
2022-10-10T03:55:17.637Z,31.75
2022-10-10T03:58:04.041Z,29.10
2022-10-10T04:00:57.561Z,30.00
2022-10-10T04:03:44.487Z,31.70
2022-10-10T04:06:32.553Z,31.33
2022-10-10T04:09:18.519Z,29.15
2022-10-10T04:12:04.518Z,29.73
2022-10-10T04:14:50.940Z,29.90
2022-10-10T04:17:37.043Z,29.00
2022-10-10T04:20:23.155Z,32.92
2022-10-10T04:23:09.288Z,32.38
2022-10-10T04:25:55.065Z,30.85
2022-10-10T04:28:41.255Z,35.08
2022-10-10T04:31:27.332Z,32.78
2022-10-10T04:34:13.067Z,30.88
2022-10-10T04:36:59.022Z,32.65
2022-10-10T04:39:44.885Z,35.53
2022-10-10T04:42:30.719Z,34.42
2022-10-10T04:45:16.729Z,33.15
2022-10-10T04:48:02.826Z,33.03
2022-10-10T04:50:57.284Z,36.92
2022-10-10T04:53:48.107Z,31.95
2022-10-10T04:56:35.952Z,32.00
2022-10-10T04:59:22.181Z,34.55
2022-10-10T05:02:07.990Z,36.53
2022-10-10T05:04:53.974Z,38.00
2022-10-10T05:07:40.052Z,38.55
2022-10-10T05:10:25.989Z,42.60
2022-10-10T05:13:13.734Z,39.38
2022-10-10T05:16:00.848Z,38.72
2022-10-10T05:18:46.602Z,43.58
2022-10-10T05:21:32.680Z,36.53
2022-10-10T05:24:18.864Z,39.33
2022-10-10T05:27:04.657Z,37.15
2022-10-10T05:29:50.682Z,34.67
2022-10-10T05:32:36.907Z,33.78
2022-10-10T05:35:22.991Z,38.10
2022-10-10T05:38:09.148Z,38.22
2022-10-10T05:40:55.352Z,36.50
2022-10-10T05:43:41.505Z,34.05
2022-10-10T05:46:27.603Z,34.17
2022-10-10T05:49:13.588Z,39.08
2022-10-10T05:51:59.539Z,34.60
2022-10-10T05:54:46.145Z,41.25
2022-10-10T05:57:31.836Z,40.17
2022-10-10T06:00:17.901Z,42.50
2022-10-10T06:03:04.895Z,40.30
2022-10-10T06:05:52.100Z,39.63
2022-10-10T06:08:37.974Z,47.13
2022-10-10T06:11:25.122Z,50.50
2022-10-10T06:14:11.039Z,52.80
2022-10-10T06:16:57.239Z,52.40
2022-10-10T06:19:43.185Z,66.63
2022-10-10T06:22:29.559Z,59.00
2022-10-10T06:25:38.528Z,77.95
2022-10-10T06:28:23.033Z,62.15
2022-10-10T06:31:10.592Z,54.03
2022-10-10T06:33:56.448Z,45.00
2022-10-10T06:36:42.449Z,43.22
2022-10-10T06:39:28.136Z,51.35
2022-10-10T06:42:14.158Z,48.92
2022-10-10T06:45:00.084Z,47.92
2022-10-10T06:47:45.877Z,48.45
2022-10-10T06:50:31.665Z,52.25
2022-10-10T06:53:17.529Z,48.40
2022-10-10T06:56:04.088Z,45.00
2022-10-10T06:58:50.652Z,46.85
2022-10-10T07:01:36.467Z,52.55
2022-10-10T07:04:22.486Z,42.28
2022-10-10T07:07:08.338Z,43.90
2022-10-10T07:09:54.169Z,46.95
2022-10-10T07:12:44.495Z,47.05
2022-10-10T07:15:31.143Z,41.25
2022-10-10T07:18:20.460Z,37.13
2022-10-10T07:21:06.706Z,39.28
2022-10-10T07:23:52.509Z,41.38
2022-10-10T07:26:39.337Z,37.15
2022-10-10T07:29:25.251Z,40.03
2022-10-10T07:32:11.478Z,47.03
2022-10-10T07:34:58.965Z,44.03
2022-10-10T07:37:45.273Z,51.63
2022-10-10T07:40:31.484Z,50.30
2022-10-10T07:43:18.417Z,47.83
2022-10-10T07:46:08.257Z,52.35
2022-10-10T07:48:57.229Z,53.80
2022-10-10T07:51:43.253Z,43.03
2022-10-10T07:54:30.006Z,48.15
2022-10-10T07:57:15.885Z,45.15
2022-10-10T08:00:09.888Z,42.40
2022-10-10T08:02:59.049Z,46.63
2022-10-10T08:05:47.004Z,50.58
2022-10-10T08:08:34.377Z,52.55
2022-10-10T08:11:21.986Z,49.15
2022-10-10T08:14:08.067Z,44.00
2022-10-10T08:16:53.769Z,50.22
2022-10-10T08:19:39.654Z,55.53
2022-10-10T08:22:25.533Z,49.67
2022-10-10T08:25:11.723Z,63.83
2022-10-10T08:27:57.615Z,66.72
2022-10-10T08:30:43.658Z,70.57
2022-10-10T08:33:29.592Z,81.13
2022-10-10T08:36:20.706Z,71.25
2022-10-10T08:39:07.128Z,78.68
2022-10-10T08:41:56.060Z,83.55
2022-10-10T08:44:45.193Z,74.00
2022-10-10T08:47:50.182Z,73.60
2022-10-10T08:50:40.592Z,84.25
2022-10-10T08:53:43.058Z,76.80
2022-10-10T08:56:33.756Z,79.93
2022-10-10T08:59:27.912Z,71.93
2022-10-10T09:02:29.580Z,74.10
2022-10-10T09:05:51.034Z,67.53
2022-10-10T09:08:57.575Z,58.20
2022-10-10T09:12:03.949Z,62.97
2022-10-10T09:15:20.282Z,59.38
2022-10-10T09:18:30.889Z,60.17
2022-10-10T09:21:20.738Z,56.10
2022-10-10T09:24:19.702Z,57.22
2022-10-10T09:27:07.400Z,59.75
2022-10-10T09:30:16.548Z,53.92
2022-10-10T09:33:12.292Z,65.00
2022-10-10T09:35:59.472Z,62.05
2022-10-10T09:38:53.132Z,63.80
2022-10-10T09:42:10.593Z,55.20
2022-10-10T09:44:56.637Z,53.65
2022-10-10T09:47:42.519Z,58.55
2022-10-10T09:50:28.670Z,55.70
2022-10-10T09:53:16.362Z,53.22
2022-10-10T09:56:05.338Z,76.00
2022-10-10T09:58:53.371Z,55.53
2022-10-10T10:01:39.295Z,51.70
2022-10-10T10:04:32.155Z,56.42
2022-10-10T10:07:18.541Z,51.72
2022-10-10T10:10:24.523Z,53.53
2022-10-10T10:13:15.151Z,54.95
2022-10-10T10:16:10.323Z,52.35
2022-10-10T10:18:56.606Z,55.38
2022-10-10T10:21:52.641Z,50.72
2022-10-10T10:24:39.232Z,51.38
2022-10-10T10:27:28.379Z,50.95
2022-10-10T10:30:25.373Z,53.58
2022-10-10T10:33:42.621Z,57.88
2022-10-10T10:36:47.134Z,55.83
2022-10-10T10:39:52.011Z,52.25
2022-10-10T10:42:50.337Z,56.75
2022-10-10T10:45:54.976Z,55.63
2022-10-10T10:48:52.634Z,53.42
2022-10-10T10:52:03.936Z,51.53
2022-10-10T10:55:08.470Z,51.53
2022-10-10T11:02:03.182Z,43.90
2022-10-10T11:05:25.201Z,44.70
2022-10-10T11:08:08.220Z,44.33
2022-10-10T11:11:29.658Z,43.63
2022-10-10T11:14:31.159Z,41.60
2022-10-10T11:17:40.269Z,50.67
2022-10-10T11:20:31.689Z,46.65
2022-10-10T11:23:20.726Z,47.22
2022-10-10T11:26:20.841Z,45.78
2022-10-10T11:29:35.462Z,43.60
2022-10-10T11:32:30.811Z,43.08
2022-10-10T11:35:59.250Z,40.85
2022-10-10T11:38:51.042Z,46.17
2022-10-10T11:42:00.208Z,42.00
2022-10-10T11:44:56.109Z,40.88
2022-10-10T11:47:50.976Z,41.10
2022-10-10T11:50:40.772Z,44.65
2022-10-10T11:53:41.834Z,44.92
2022-10-10T11:56:35.692Z,39.15
2022-10-10T11:59:26.080Z,44.05
2022-10-10T12:02:25.709Z,39.70
2022-10-10T12:05:25.513Z,40.20
2022-10-10T12:08:19.526Z,39.95
2022-10-10T12:11:16.071Z,39.03
2022-10-10T12:14:02.845Z,45.05
2022-10-10T12:16:49.241Z,45.35
2022-10-10T12:19:35.587Z,39.10
2022-10-10T12:22:29.081Z,38.83
2022-10-10T12:25:25.833Z,46.88
2022-10-10T12:28:14.919Z,42.10
2022-10-10T12:31:06.884Z,43.72
2022-10-10T12:34:04.706Z,45.58
2022-10-10T12:36:58.301Z,41.33
2022-10-10T12:40:07.099Z,45.30
2022-10-10T12:42:56.162Z,51.72
2022-10-10T12:45:57.615Z,50.53
2022-10-10T12:48:44.299Z,43.85
2022-10-10T12:51:32.054Z,49.53
2022-10-10T12:54:24.651Z,46.85
2022-10-10T12:57:33.676Z,45.38
2022-10-10T13:00:20.955Z,46.85
2022-10-10T13:03:18.814Z,45.20
2022-10-10T13:06:11.260Z,42.45
2022-10-10T13:08:57.883Z,39.88
2022-10-10T13:11:59.044Z,39.80
2022-10-10T13:14:45.914Z,37.83
2022-10-10T13:17:37.587Z,48.53
2022-10-10T13:20:36.071Z,50.05
2022-10-10T13:23:22.077Z,54.20
2022-10-10T13:26:23.859Z,58.65
2022-10-10T13:29:36.477Z,52.70
2022-10-10T13:32:42.501Z,45.67
2022-10-10T13:35:29.374Z,48.85
2022-10-10T13:38:17.463Z,43.80
2022-10-10T13:41:05.100Z,46.67
2022-10-10T13:43:51.981Z,46.83
2022-10-10T13:46:38.127Z,53.22
2022-10-10T13:49:30.673Z,48.83
2022-10-10T13:52:24.162Z,49.08
2022-10-10T13:55:15.582Z,45.00
2022-10-10T13:58:06.956Z,48.22
2022-10-10T14:00:57.755Z,45.90
2022-10-10T14:03:46.308Z,53.25
2022-10-10T14:06:32.671Z,51.70
2022-10-10T14:09:55.788Z,37.90
2022-10-10T14:12:47.158Z,38.97
2022-10-10T14:15:42.523Z,37.80
2022-10-10T14:18:28.509Z,39.78
2022-10-10T14:21:15.267Z,34.45
2022-10-10T14:24:01.181Z,34.35
2022-10-10T14:26:47.439Z,38.15
2022-10-10T14:29:33.277Z,35.28
2022-10-10T14:32:19.352Z,32.78
2022-10-10T14:35:06.216Z,38.58
2022-10-10T14:37:52.349Z,33.08
2022-10-10T14:40:38.497Z,45.22
2022-10-10T14:43:24.545Z,46.28
2022-10-10T14:46:22.314Z,41.58
2022-10-10T14:49:16.408Z,41.17
2022-10-10T14:52:02.641Z,42.58
2022-10-10T14:54:48.778Z,50.88
2022-10-10T14:57:34.610Z,44.72
2022-10-10T15:00:23.435Z,42.03
2022-10-10T15:03:09.253Z,49.53
2022-10-10T15:05:55.509Z,50.50
2022-10-10T15:08:41.882Z,57.30
2022-10-10T15:11:27.672Z,55.90
2022-10-10T15:14:13.775Z,60.95
2022-10-10T15:16:59.519Z,53.45
2022-10-10T15:19:45.504Z,52.40
2022-10-10T15:22:32.297Z,58.38
2022-10-10T15:25:18.305Z,59.15
2022-10-10T15:28:04.912Z,59.42
2022-10-10T15:30:52.679Z,54.40
2022-10-10T15:33:39.083Z,70.25
2022-10-10T15:36:25.230Z,60.15
2022-10-10T15:39:11.740Z,66.07
2022-10-10T15:41:58.073Z,61.35
2022-10-10T15:44:46.044Z,58.80
2022-10-10T15:47:32.337Z,64.10
2022-10-10T15:50:18.545Z,61.97
2022-10-10T15:53:04.825Z,59.72
2022-10-10T15:55:51.051Z,62.50
2022-10-10T15:58:38.258Z,57.30
2022-10-10T16:01:24.702Z,64.32
2022-10-10T16:04:11.623Z,67.65
2022-10-10T16:07:26.852Z,61.83
2022-10-10T16:10:04.218Z,73.85
2022-10-10T16:12:50.183Z,70.78
2022-10-10T16:15:36.610Z,74.22
2022-10-10T16:18:23.130Z,68.95
2022-10-10T16:21:17.687Z,77.65
2022-10-10T16:24:03.982Z,79.05
2022-10-10T16:26:50.077Z,80.38
2022-10-10T16:29:36.033Z,80.68
2022-10-10T16:32:22.005Z,76.10
2022-10-10T16:35:08.369Z,81.78
2022-10-10T16:37:54.226Z,83.18
2022-10-10T16:40:40.289Z,83.38
2022-10-10T16:43:26.318Z,80.05
2022-10-10T16:46:18.587Z,89.60
2022-10-10T16:49:04.857Z,87.93
2022-10-10T16:51:51.200Z,90.47
2022-10-10T16:54:37.162Z,86.38
2022-10-10T16:57:23.206Z,81.97
2022-10-10T17:00:09.794Z,80.10
2022-10-10T17:02:55.607Z,93.28
2022-10-10T17:05:41.554Z,94.50
2022-10-10T17:08:28.291Z,83.68
2022-10-10T17:11:14.776Z,92.63
2022-10-10T17:14:01.595Z,93.10
2022-10-10T17:19:53.892Z,96.85
2022-10-10T17:22:41.048Z,95.50
2022-10-10T17:25:28.315Z,104.53
2022-10-10T17:28:14.995Z,90.47
2022-10-10T17:31:01.459Z,98.68
2022-10-10T17:33:53.257Z,96.95
2022-10-10T17:36:39.712Z,94.95
2022-10-10T17:39:25.555Z,109.93
2022-10-10T17:42:11.565Z,120.93
2022-10-10T17:44:59.518Z,113.00
2022-10-10T17:47:45.644Z,102.60
2022-10-10T17:50:31.299Z,106.47
2022-10-10T17:53:17.273Z,97.60
2022-10-10T17:56:04.538Z,117.38
2022-10-10T17:58:50.911Z,105.93
2022-10-10T18:01:38.022Z,117.40
2022-10-10T18:04:23.884Z,110.45
2022-10-10T18:07:12.202Z,99.40
2022-10-10T18:09:58.679Z,102.85
2022-10-10T18:12:44.829Z,108.85
2022-10-10T18:15:30.964Z,97.13
2022-10-10T18:18:17.140Z,104.32
2022-10-10T18:21:05.821Z,105.20
2022-10-10T18:23:52.123Z,99.20
2022-10-10T18:26:38.391Z,92.10
2022-10-10T18:29:24.558Z,106.75
2022-10-10T18:32:10.321Z,105.97
2022-10-10T18:34:56.599Z,121.90
2022-10-10T18:37:43.324Z,116.32
2022-10-10T18:40:29.665Z,117.70
2022-10-10T18:43:18.310Z,101.47
2022-10-10T18:46:07.750Z,115.82
2022-10-10T18:48:54.372Z,102.97
2022-10-10T18:51:43.186Z,95.82
2022-10-10T18:54:30.587Z,85.47
2022-10-10T18:57:16.848Z,81.35
2022-10-10T19:00:03.003Z,76.05
2022-10-10T19:02:49.267Z,68.97
2022-10-10T19:05:40.072Z,70.80
2022-10-10T19:08:26.401Z,70.60
2022-10-10T19:11:33.073Z,66.82
2022-10-10T19:14:19.783Z,66.85
2022-10-10T19:17:05.882Z,66.78
2022-10-10T19:19:52.694Z,61.92
2022-10-10T19:22:38.883Z,77.10
2022-10-10T19:25:27.679Z,65.80
2022-10-10T19:28:13.804Z,71.88
2022-10-10T19:31:04.564Z,85.05
2022-10-10T19:33:52.515Z,75.68
2022-10-10T19:36:39.908Z,77.00
2022-10-10T19:39:28.497Z,72.97
2022-10-10T19:42:14.787Z,83.10
2022-10-10T19:45:01.059Z,75.15
2022-10-10T19:47:47.187Z,70.47
2022-10-10T19:50:33.515Z,62.60
2022-10-10T19:53:19.851Z,74.65
2022-10-10T19:56:09.285Z,71.85
2022-10-10T19:58:59.046Z,93.13
2022-10-10T20:01:45.294Z,74.53
2022-10-10T20:04:30.994Z,81.05
2022-10-10T20:07:17.108Z,84.57
2022-10-10T20:10:04.647Z,93.13
2022-10-10T20:12:51.239Z,87.18
2022-10-10T20:15:50.580Z,88.50
2022-10-10T20:18:39.681Z,95.60
2022-10-10T20:21:30.095Z,89.70
2022-10-10T20:24:16.136Z,82.85
2022-10-10T20:27:02.198Z,83.88
2022-10-10T20:29:48.125Z,79.07
2022-10-10T20:32:34.330Z,72.75
2022-10-10T20:35:20.772Z,76.35
2022-10-10T20:38:10.652Z,72.65
2022-10-10T20:40:57.040Z,71.95
2022-10-10T20:43:43.100Z,61.92
2022-10-10T20:46:32.146Z,65.32
2022-10-10T20:49:20.829Z,64.78
2022-10-10T20:52:06.888Z,61.28
2022-10-10T20:54:53.189Z,59.08
2022-10-10T20:57:39.068Z,58.72
2022-10-10T21:00:25.084Z,61.17
2022-10-10T21:03:11.397Z,63.92
2022-10-10T21:06:15.008Z,62.28
2022-10-10T21:09:04.391Z,61.25
2022-10-10T21:11:51.629Z,61.35
2022-10-10T21:14:37.754Z,61.13
2022-10-10T21:17:23.780Z,65.97
2022-10-10T21:20:10.087Z,62.72
2022-10-10T21:22:56.036Z,62.95
2022-10-10T21:25:42.949Z,68.80
2022-10-10T21:28:29.046Z,73.47
2022-10-10T21:31:19.656Z,64.22
2022-10-10T21:34:07.651Z,62.95
2022-10-10T21:36:53.788Z,62.40
2022-10-10T21:39:40.113Z,63.00
2022-10-10T21:42:26.457Z,65.47
2022-10-10T21:45:12.620Z,65.63
2022-10-10T21:47:58.785Z,67.85
2022-10-10T21:50:44.788Z,68.78
2022-10-10T21:53:30.813Z,68.38
2022-10-10T21:56:17.569Z,63.78
2022-10-10T21:59:03.893Z,64.05
2022-10-10T22:01:49.888Z,64.18
2022-10-10T22:04:36.000Z,67.15
2022-10-10T22:07:21.885Z,65.78
2022-10-10T22:10:10.218Z,66.70
2022-10-10T22:12:56.470Z,60.90
2022-10-10T22:15:42.833Z,70.97
2022-10-10T22:18:29.447Z,62.55
2022-10-10T22:21:17.221Z,61.38
2022-10-10T22:24:06.355Z,66.25
2022-10-10T22:26:52.994Z,61.83
2022-10-10T22:29:39.141Z,68.22
2022-10-10T22:32:25.231Z,66.00
2022-10-10T22:35:11.355Z,60.40
2022-10-10T22:37:57.450Z,61.33
2022-10-10T22:40:43.532Z,58.42
2022-10-10T22:43:29.494Z,59.50
2022-10-10T22:46:15.557Z,58.13
2022-10-10T22:49:01.975Z,56.92
2022-10-10T22:51:48.134Z,55.63
2022-10-10T22:54:34.451Z,56.03
2022-10-10T22:57:20.381Z,57.33
2022-10-10T23:00:07.259Z,57.90
2022-10-10T23:02:57.094Z,60.90
2022-10-10T23:05:44.936Z,54.63
2022-10-10T23:08:31.123Z,60.47
2022-10-10T23:11:17.114Z,62.35
2022-10-10T23:14:03.867Z,59.15
2022-10-10T23:16:49.832Z,59.08
2022-10-10T23:19:35.949Z,62.08
2022-10-10T23:22:21.889Z,65.80
2022-10-10T23:25:07.927Z,63.50
2022-10-10T23:27:54.233Z,63.17
2022-10-10T23:30:41.693Z,55.95
2022-10-10T23:33:27.918Z,60.83
2022-10-10T23:36:15.281Z,71.50
2022-10-10T23:39:02.918Z,80.72
2022-10-10T23:41:50.433Z,82.32
2022-10-10T23:44:36.475Z,80.63
2022-10-10T23:47:23.332Z,69.70
2022-10-10T23:50:09.601Z,75.10
2022-10-10T23:52:55.367Z,73.90
2022-10-10T23:55:41.518Z,70.32
2022-10-10T23:58:28.025Z,63.75
